Time;durP1;ratioP1;P1;durP2;ratioP2;P2;SDS_P1;SDS_P2;PMS_P1;PMS_P2;Temp;Humidity;BMP_temperature;BMP_pressure;BME280_temperature;BME280_humidity;BME280_pressure;Samples;Min_cycle;Max_cycle;Signal;HPM_P1;HPM_P2
2023/06/13 00:02:25;;;;;;;2.58;1.17;;;;;;;17.49;60.16;99576.97;4381096;32;20089;-86
2023/06/13 00:04:51;;;;;;;2.70;1.50;;;;;;;17.41;60.16;99581.87;4381381;32;20148;-85
2023/06/13 00:07:17;;;;;;;2.92;1.42;;;;;;;17.55;60.17;99569.66;4380958;32;20422;-84
2023/06/13 00:09:43;;;;;;;2.78;1.40;;;;;;;17.58;60.16;99578.19;4378860;32;20090;-86
2023/06/13 00:12:09;;;;;;;2.92;1.52;;;;;;;17.53;60.16;99576.81;4390455;32;20142;-86
2023/06/13 00:14:35;;;;;;;3.35;1.37;;;;;;;17.64;60.17;99566.41;4393900;32;20128;-87
2023/06/13 00:17:02;;;;;;;3.25;1.30;;;;;;;17.65;60.17;99581.28;4380802;32;20157;-86
2023/06/13 00:19:28;;;;;;;3.62;1.35;;;;;;;17.53;60.16;99566.28;4368694;32;20171;-86
2023/06/13 00:21:56;;;;;;;2.78;1.10;;;;;;;17.53;60.17;99572.38;4380547;32;20588;-86
2023/06/13 00:24:21;;;;;;;5.03;1.30;;;;;;;17.46;60.16;99566.63;4381419;32;20514;-86
2023/06/13 00:26:47;;;;;;;3.17;1.58;;;;;;;17.56;60.17;99566.06;4393311;32;20137;-85
2023/06/13 00:29:12;;;;;;;2.33;1.45;;;;;;;17.78;60.18;99554.09;4392896;32;25710;-86
2023/06/13 00:31:38;;;;;;;2.95;1.37;;;;;;;17.51;60.15;99555.84;4406499;32;21917;-87
2023/06/13 00:34:03;;;;;;;2.87;1.30;;;;;;;17.53;60.17;99556.59;4374665;32;20150;-85
2023/06/13 00:36:29;;;;;;;1.73;1.00;;;;;;;17.63;60.16;99555.03;4376302;32;20114;-86
2023/06/13 00:38:57;;;;;;;2.45;1.30;;;;;;;17.43;60.16;99547.56;4369306;32;20117;-85
2023/06/13 00:41:23;;;;;;;2.95;1.48;;;;;;;17.44;60.15;99554.53;4376604;32;20082;-86
2023/06/13 00:43:49;;;;;;;3.22;1.27;;;;;;;17.28;60.15;99549.41;4380832;32;20133;-84
2023/06/13 00:46:17;;;;;;;2.22;1.25;;;;;;;17.56;60.17;99550.28;4392841;32;20142;-86
2023/06/13 00:48:43;;;;;;;4.10;1.25;;;;;;;17.55;60.16;99541.53;4397681;32;20090;-86
2023/06/13 00:51:09;;;;;;;1.90;1.17;;;;;;;17.56;60.16;99542.38;4395291;32;20449;-86
2023/06/13 00:53:35;;;;;;;3.33;1.10;;;;;;;17.46;60.16;99540.31;4393643;32;20142;-86
2023/06/13 00:56:01;;;;;;;1.62;1.10;;;;;;;17.04;60.13;99537.78;4402925;32;20114;-89
2023/06/13 00:58:27;;;;;;;2.33;1.20;;;;;;;17.25;60.15;99536.41;4380739;32;20455;-86
2023/06/13 01:00:52;;;;;;;2.97;1.50;;;;;;;17.05;60.14;99531.59;4392485;32;20235;-87
2023/06/13 01:03:19;;;;;;;4.87;1.08;;;;;;;17.27;60.14;99525.78;4395177;32;22619;-86
2023/06/13 01:05:45;;;;;;;1.92;1.00;;;;;;;17.31;60.15;99524.69;4407888;32;20472;-86
2023/06/13 01:08:21;;;;;;;1.80;1.10;;;;;;;17.37;60.15;99529.56;4406066;32;20108;-86
2023/06/13 01:11:16;;;;;;;2.72;1.40;;;;;;;17.06;60.13;99522.75;4406969;32;20115;-86
2023/06/13 01:13:53;;;;;;;3.22;1.33;;;;;;;17.21;60.14;99523.56;4392463;32;20125;-87
2023/06/13 01:16:25;;;;;;;3.10;1.30;;;;;;;17.35;60.16;99523.53;4393750;32;20451;-86
2023/06/13 01:18:51;;;;;;;1.50;1.08;;;;;;;17.17;60.14;99522.91;4419144;32;20119;-86
2023/06/13 01:21:17;;;;;;;1.87;1.08;;;;;;;17.07;60.14;99521.81;4395940;32;20141;-86
2023/06/13 01:23:52;;;;;;;1.90;1.10;;;;;;;17.16;60.15;99516.81;4382802;32;20183;-86
2023/06/13 01:26:56;;;;;;;1.75;1.30;;;;;;;17.12;60.13;99517.09;4422153;32;20094;-86
2023/06/13 01:29:22;;;;;;;2.53;1.25;;;;;;;16.88;60.13;99520.31;4401378;32;20185;-85
2023/06/13 01:31:50;;;;;;;2.83;0.82;;;;;;;16.63;60.12;99527.13;4422030;32;20110;-86
2023/06/13 01:34:18;;;;;;;2.83;1.33;;;;;;;16.68;60.11;99525.09;4398938;32;20398;-86
2023/06/13 01:36:43;;;;;;;4.75;1.30;;;;;;;16.86;60.12;99522.19;4404152;32;20094;-86
2023/06/13 01:39:11;;;;;;;2.47;1.20;;;;;;;17.03;60.13;99515.88;4405577;32;20185;-86
2023/06/13 01:41:36;;;;;;;6.20;1.10;;;;;;;16.94;60.13;99510.34;4406774;32;20109;-86
2023/06/13 01:44:02;;;;;;;2.70;1.55;;;;;;;16.92;60.12;99512.22;4416185;32;20098;-86
2023/06/13 01:46:31;;;;;;;4.80;1.12;;;;;;;16.98;60.13;99504.78;4392847;32;20098;-86
2023/06/13 01:49:06;;;;;;;3.85;1.40;;;;;;;17.07;60.14;99508.66;4402314;32;20149;-86
2023/06/13 01:51:40;;;;;;;2.17;0.93;;;;;;;17.05;60.14;99505.28;4421060;32;20168;-86
2023/06/13 01:54:08;;;;;;;4.55;1.20;;;;;;;16.72;60.12;99509.03;4394979;32;20129;-86
2023/06/13 01:56:33;;;;;;;5.40;1.42;;;;;;;16.88;60.13;99503.69;4384375;32;20117;-85
2023/06/13 01:59:00;;;;;;;4.20;1.10;;;;;;;16.84;60.12;99495.16;4391356;32;20446;-85
2023/06/13 02:01:25;;;;;;;2.45;1.45;;;;;;;16.87;60.12;99508.09;4393006;32;20471;-86
2023/06/13 02:03:51;;;;;;;2.15;1.35;;;;;;;16.96;60.13;99500.56;4403835;32;20105;-85
2023/06/13 02:06:17;;;;;;;3.25;1.40;;;;;;;16.99;60.12;99503.00;4407907;32;20142;-86
2023/06/13 02:08:44;;;;;;;4.53;1.20;;;;;;;16.94;60.13;99505.94;4393009;32;20095;-85
2023/06/13 02:11:09;;;;;;;4.50;1.40;;;;;;;16.91;60.13;99507.91;4405355;32;20098;-86
2023/06/13 02:13:34;;;;;;;1.75;1.25;;;;;;;16.78;60.13;99510.44;4401115;32;20189;-85
2023/06/13 02:16:00;;;;;;;3.25;1.27;;;;;;;16.97;60.13;99507.53;4407697;32;20142;-85
2023/06/13 02:18:27;;;;;;;1.95;1.30;;;;;;;16.72;60.12;99511.66;4393186;32;30174;-86
2023/06/13 02:20:53;;;;;;;3.28;1.40;;;;;;;16.90;60.12;99511.47;4394325;32;20098;-85
2023/06/13 02:23:19;;;;;;;2.00;1.20;;;;;;;16.74;60.12;99504.53;4393630;32;20138;-85
2023/06/13 02:25:45;;;;;;;2.70;1.30;;;;;;;16.81;60.12;99503.22;4394026;32;20125;-85
2023/06/13 02:28:11;;;;;;;3.40;1.42;;;;;;;16.75;60.12;99511.47;4394007;32;20086;-85
2023/06/13 02:30:36;;;;;;;4.05;1.37;;;;;;;16.64;60.11;99516.53;4381378;32;20121;-85
2023/06/13 02:33:01;;;;;;;2.22;1.23;;;;;;;16.65;60.11;99517.34;4407684;32;20098;-86
2023/06/13 02:35:27;;;;;;;4.03;1.33;;;;;;;16.46;60.11;99499.22;4394002;32;20197;-86
2023/06/13 02:37:53;;;;;;;2.25;0.98;;;;;;;16.56;60.11;99503.84;4393556;32;20101;-86
2023/06/13 02:40:22;;;;;;;6.43;1.58;;;;;;;16.38;60.11;99504.09;4393896;32;20089;-86
2023/06/13 02:42:48;;;;;;;1.70;1.23;;;;;;;16.24;60.09;99492.63;4407557;32;20160;-86
2023/06/13 02:45:14;;;;;;;2.08;1.37;;;;;;;16.38;60.10;99491.81;4394083;32;20110;-84
2023/06/13 02:47:40;;;;;;;2.65;1.17;;;;;;;16.15;60.08;99493.19;4407392;32;20152;-85
2023/06/13 02:50:05;;;;;;;4.35;1.10;;;;;;;16.22;60.09;99502.38;4393623;32;20161;-84
2023/06/13 02:52:31;;;;;;;2.22;1.52;;;;;;;16.37;60.09;99505.03;4407527;32;20160;-85
2023/06/13 02:54:56;;;;;;;3.80;1.52;;;;;;;15.83;60.06;99505.53;4393729;32;20114;-86
2023/06/13 02:57:22;;;;;;;3.40;1.42;;;;;;;15.75;60.06;99509.53;4393581;32;20117;-86
2023/06/13 02:59:47;;;;;;;3.33;1.30;;;;;;;15.61;60.05;99512.94;4392934;32;30601;-86
2023/06/13 03:02:13;;;;;;;2.45;1.40;;;;;;;15.44;60.05;99510.41;4368208;32;20149;-86
2023/06/13 03:04:39;;;;;;;3.05;1.30;;;;;;;15.53;60.05;99508.09;4396091;32;20143;-87
2023/06/13 03:07:05;;;;;;;5.50;1.25;;;;;;;15.36;60.04;99516.88;4395368;32;20146;-87
2023/06/13 03:09:31;;;;;;;2.17;1.35;;;;;;;15.52;60.04;99513.44;4408685;32;20089;-87
2023/06/13 03:11:59;;;;;;;5.45;1.50;;;;;;;15.34;60.05;99512.66;4382955;32;20103;-86
2023/06/13 03:14:24;;;;;;;2.67;1.52;;;;;;;15.37;60.04;99509.88;4383681;32;20207;-85
2023/06/13 03:16:52;;;;;;;1.75;1.20;;;;;;;15.05;60.03;99512.47;4409426;32;20488;-84
2023/06/13 03:19:18;;;;;;;1.75;1.20;;;;;;;15.18;60.04;99510.06;4396012;32;20558;-85
2023/06/13 03:21:44;;;;;;;1.58;1.17;;;;;;;15.02;60.02;99512.66;4409457;32;20106;-85
2023/06/13 03:24:10;;;;;;;5.03;1.60;;;;;;;14.95;60.02;99518.31;4395712;32;20187;-86
2023/06/13 03:26:37;;;;;;;3.62;1.58;;;;;;;14.89;60.02;99505.53;4383137;32;20168;-86
2023/06/13 03:29:03;;;;;;;4.20;1.40;;;;;;;15.05;60.03;99502.00;4409035;32;20095;-85
2023/06/13 03:31:28;;;;;;;2.37;1.50;;;;;;;14.99;60.02;99511.97;4408913;32;20090;-86
2023/06/13 03:33:53;;;;;;;3.47;1.17;;;;;;;15.00;60.02;99514.50;4380720;32;20182;-85
2023/06/13 03:36:19;;;;;;;2.55;1.60;;;;;;;14.92;60.03;99516.72;4391917;32;20518;-86
2023/06/13 03:38:44;;;;;;;3.65;1.45;;;;;;;14.88;60.02;99509.06;4392461;32;20145;-85
2023/06/13 03:41:10;;;;;;;2.92;1.50;;;;;;;14.72;60.01;99514.28;4391756;32;20144;-86
2023/06/13 03:43:35;;;;;;;4.65;1.35;;;;;;;14.68;60.00;99513.63;4391971;32;22468;-85
2023/06/13 03:46:01;;;;;;;3.17;1.40;;;;;;;14.76;60.01;99521.06;4392217;32;20126;-86
2023/06/13 03:48:26;;;;;;;3.25;1.90;;;;;;;14.88;60.02;99524.78;4391977;32;20486;-85
2023/06/13 03:50:51;;;;;;;2.08;1.10;;;;;;;14.80;60.02;99519.13;4408109;32;29033;-85
2023/06/13 03:53:17;;;;;;;2.58;1.45;;;;;;;14.86;60.02;99521.41;4394462;32;24981;-85
2023/06/13 03:55:44;;;;;;;4.22;1.60;;;;;;;14.73;60.01;99524.69;4395002;32;20086;-84
2023/06/13 03:58:11;;;;;;;1.87;1.42;;;;;;;14.90;60.02;99515.06;4408970;32;20415;-85
2023/06/13 04:00:39;;;;;;;4.72;1.65;;;;;;;15.16;60.04;99511.91;4407361;32;20129;-85
2023/06/13 04:03:04;;;;;;;4.43;1.83;;;;;;;14.89;60.01;99516.84;4408847;32;20450;-85
2023/06/13 04:05:31;;;;;;;4.12;1.87;;;;;;;15.14;60.03;99513.78;4394938;32;20249;-86
2023/06/13 04:07:56;;;;;;;4.05;1.60;;;;;;;15.05;60.02;99516.88;4395232;32;20249;-85
2023/06/13 04:10:22;;;;;;;2.78;1.42;;;;;;;15.21;60.03;99515.13;4406000;32;20167;-86
2023/06/13 04:12:47;;;;;;;4.82;1.33;;;;;;;15.04;60.02;99520.44;4369784;32;20110;-85
2023/06/13 04:15:13;;;;;;;2.75;1.67;;;;;;;15.14;60.02;99523.38;4406783;32;26139;-86
2023/06/13 04:17:40;;;;;;;3.62;1.60;;;;;;;15.29;60.03;99526.03;4395275;32;20106;-86
2023/06/13 04:20:05;;;;;;;5.78;1.33;;;;;;;15.54;60.06;99515.03;4395089;32;20133;-85
2023/06/13 04:22:33;;;;;;;3.30;1.25;;;;;;;15.69;60.05;99523.00;4382546;32;20105;-85
2023/06/13 04:24:59;;;;;;;3.25;1.25;;;;;;;15.86;60.07;99513.25;4395536;32;20086;-86
2023/06/13 04:27:28;;;;;;;2.50;1.23;;;;;;;16.11;60.08;99517.09;4382205;32;20109;-86
2023/06/13 04:29:55;;;;;;;3.45;1.62;;;;;;;16.34;60.09;99515.75;4395322;32;20106;-86
2023/06/13 04:32:23;;;;;;;3.40;1.48;;;;;;;16.46;60.09;99512.38;4382423;32;20539;-87
2023/06/13 04:34:52;;;;;;;4.47;1.50;;;;;;;16.54;60.10;99518.00;4395437;32;20163;-86
2023/06/13 04:37:27;;;;;;;2.03;1.33;;;;;;;16.72;60.11;99508.19;4395558;32;20440;-86
2023/06/13 04:39:53;;;;;;;2.95;1.33;;;;;;;16.91;60.12;99511.38;4395142;32;20512;-86
2023/06/13 04:42:27;;;;;;;2.10;1.30;;;;;;;16.95;60.12;99515.50;4382618;32;20106;-86
2023/06/13 04:44:53;;;;;;;2.10;1.05;;;;;;;17.14;60.13;99518.69;4395959;32;20529;-85
2023/06/13 04:47:19;;;;;;;2.87;1.33;;;;;;;17.25;60.14;99518.00;4395239;32;20168;-85
2023/06/13 04:49:45;;;;;;;2.95;1.00;;;;;;;17.56;60.15;99511.66;4394811;32;20471;-85
2023/06/13 04:52:14;;;;;;;6.85;1.52;;;;;;;17.56;60.16;99506.37;4395050;32;20148;-85
2023/06/13 04:54:40;;;;;;;8.18;1.40;;;;;;;17.75;60.17;99508.72;4408849;32;20120;-85
2023/06/13 04:57:05;;;;;;;3.12;1.20;;;;;;;17.88;60.17;99508.72;4395008;32;20095;-85
2023/06/13 04:59:31;;;;;;;1.62;1.20;;;;;;;17.93;60.18;99504.00;4408843;32;20668;-85
2023/06/13 05:01:56;;;;;;;4.30;1.27;;;;;;;18.07;60.18;99504.78;4407742;32;20157;-85
2023/06/13 05:04:21;;;;;;;4.45;1.48;;;;;;;18.40;60.20;99514.00;4381987;32;20113;-86
2023/06/13 05:06:47;;;;;;;4.72;1.37;;;;;;;18.18;60.20;99511.94;4407507;32;20106;-86
2023/06/13 05:09:14;;;;;;;2.45;1.23;;;;;;;18.35;60.20;99508.19;4381690;32;28786;-85
2023/06/13 05:11:40;;;;;;;3.70;1.30;;;;;;;18.37;60.21;99509.78;4407463;32;20213;-86
2023/06/13 05:14:05;;;;;;;4.35;1.48;;;;;;;18.54;60.21;99516.53;4394472;32;20093;-85
2023/06/13 05:16:31;;;;;;;4.43;1.00;;;;;;;18.66;60.21;99513.06;4408113;32;22239;-86
2023/06/13 05:18:57;;;;;;;1.33;1.00;;;;;;;18.54;60.21;99507.78;4394818;32;20400;-86
2023/06/13 05:21:23;;;;;;;4.55;1.02;;;;;;;18.61;60.21;99511.69;4394602;32;20477;-85
2023/06/13 05:23:48;;;;;;;3.17;1.30;;;;;;;18.98;60.23;99510.00;4407213;32;20476;-86
2023/06/13 05:26:13;;;;;;;4.37;1.40;;;;;;;19.05;60.23;99505.97;4408293;32;20120;-86
2023/06/13 05:28:39;;;;;;;1.75;1.05;;;;;;;19.04;60.23;99501.66;4394500;32;20168;-85
2023/06/13 05:31:05;;;;;;;2.35;1.10;;;;;;;19.08;60.25;99508.41;4394528;32;20367;-85
2023/06/13 05:33:31;;;;;;;4.75;1.23;;;;;;;19.12;60.24;99509.88;4394295;32;20456;-85
2023/06/13 05:35:56;;;;;;;2.40;1.40;;;;;;;19.03;60.24;99507.88;4408338;32;20150;-87
2023/06/13 05:38:21;;;;;;;3.62;1.52;;;;;;;19.11;60.24;99507.34;4393879;32;22344;-85
2023/06/13 05:40:47;;;;;;;2.85;1.17;;;;;;;19.21;60.24;99505.75;4408286;32;20138;-85
2023/06/13 05:43:12;;;;;;;1.73;1.25;;;;;;;19.47;60.26;99504.72;4394246;32;20132;-86
2023/06/13 05:45:38;;;;;;;2.53;1.37;;;;;;;19.44;60.26;99506.72;4394555;32;20137;-86
2023/06/13 05:48:04;;;;;;;1.95;1.00;;;;;;;19.45;60.25;99498.69;4408208;32;20120;-86
2023/06/13 05:50:29;;;;;;;1.90;1.10;;;;;;;19.48;60.26;99509.03;4406839;32;20141;-86
2023/06/13 05:52:54;;;;;;;3.80;1.33;;;;;;;19.44;60.25;99510.22;4394389;32;20118;-86
2023/06/13 05:55:20;;;;;;;6.93;1.27;;;;;;;19.31;60.25;99510.25;4393781;32;24670;-86
2023/06/13 05:57:45;;;;;;;1.52;1.00;;;;;;;19.30;60.26;99508.56;4406907;32;20101;-86
2023/06/13 06:00:13;;;;;;;3.58;1.20;;;;;;;19.45;60.25;99506.63;4369028;32;20136;-86
2023/06/13 06:02:42;;;;;;;2.90;1.30;;;;;;;19.54;60.27;99508.63;4381804;32;20171;-86
2023/06/13 06:05:08;;;;;;;2.20;1.30;;;;;;;19.63;60.27;99504.44;4369342;32;20149;-86
2023/06/13 06:07:35;;;;;;;3.30;1.15;;;;;;;19.71;60.27;99502.09;4381921;32;20171;-85
2023/06/13 06:10:01;;;;;;;2.37;1.05;;;;;;;20.02;60.29;99507.75;4394075;32;20117;-87
2023/06/13 06:12:26;;;;;;;2.40;1.20;;;;;;;20.32;60.31;99508.06;4368828;32;20162;-86
2023/06/13 06:14:51;;;;;;;2.05;1.50;;;;;;;20.31;60.30;99508.19;4408003;32;20130;-86
2023/06/13 06:17:17;;;;;;;5.87;1.30;;;;;;;20.67;60.32;99507.22;4406713;32;20188;-86
2023/06/13 06:19:42;;;;;;;2.67;1.20;;;;;;;20.94;60.35;99507.72;4407592;32;20170;-87
2023/06/13 06:22:08;;;;;;;1.58;0.90;;;;;;;21.01;60.35;99503.59;4406589;32;20413;-87
2023/06/13 06:24:33;;;;;;;5.85;1.20;;;;;;;21.26;60.36;99499.88;4407313;32;20138;-86
2023/06/13 06:27:00;;;;;;;1.73;1.20;;;;;;;21.66;60.37;99492.22;4393401;32;20153;-87
2023/06/13 06:29:25;;;;;;;2.08;0.88;;;;;;;21.78;60.38;99486.88;4407575;32;20524;-87
2023/06/13 06:31:50;;;;;;;3.03;1.02;;;;;;;21.84;60.39;99489.87;4381001;32;20118;-87
2023/06/13 06:34:16;;;;;;;2.53;1.33;;;;;;;21.95;60.39;99486.31;4393187;32;20128;-86
2023/06/13 06:36:41;;;;;;;2.00;1.20;;;;;;;22.17;60.41;99477.44;4393155;32;34825;-86
2023/06/13 06:39:07;;;;;;;3.70;1.45;;;;;;;22.48;60.41;99483.66;4408317;32;20150;-86
2023/06/13 06:41:32;;;;;;;1.42;1.05;;;;;;;22.50;60.42;99481.72;4395295;32;20380;-86
2023/06/13 06:43:58;;;;;;;3.92;1.62;;;;;;;22.42;60.42;99473.53;4382393;32;20584;-86
2023/06/13 06:46:23;;;;;;;2.33;1.30;;;;;;;22.35;60.42;99473.22;4383127;32;20114;-86
2023/06/13 06:48:48;;;;;;;1.87;1.15;;;;;;;22.19;60.40;99468.37;4370175;32;20124;-85
2023/06/13 06:51:14;;;;;;;2.83;1.23;;;;;;;22.09;60.39;99480.75;4407624;32;20536;-86
2023/06/13 06:53:39;;;;;;;3.03;1.20;;;;;;;21.81;60.38;99483.97;4408518;32;20170;-86
2023/06/13 06:56:05;;;;;;;5.55;1.42;;;;;;;21.75;60.38;99487.94;4382986;32;20153;-85
2023/06/13 06:58:30;;;;;;;3.50;1.27;;;;;;;21.63;60.38;99476.56;4395228;32;20366;-87
2023/06/13 07:00:57;;;;;;;4.12;1.35;;;;;;;21.67;60.38;99482.47;4408417;32;20102;-86
2023/06/13 07:03:22;;;;;;;3.30;1.48;;;;;;;21.53;60.37;99488.91;4383308;32;20148;-85
2023/06/13 07:05:48;;;;;;;2.03;1.20;;;;;;;21.62;60.39;99489.94;4395787;32;20105;-86
2023/06/13 07:08:13;;;;;;;1.98;1.20;;;;;;;21.75;60.38;99480.00;4409249;32;20102;-87
2023/06/13 07:10:38;;;;;;;3.72;1.00;;;;;;;21.78;60.38;99484.25;4395516;32;20085;-85
2023/06/13 07:13:04;;;;;;;5.72;1.30;;;;;;;21.87;60.39;99480.81;4395657;32;20106;-85
2023/06/13 07:15:30;;;;;;;3.87;1.20;;;;;;;21.81;60.39;99481.34;4408154;32;20187;-85
2023/06/13 07:17:55;;;;;;;2.50;1.02;;;;;;;21.73;60.38;99480.13;4395519;32;20124;-85
2023/06/13 07:20:21;;;;;;;3.28;1.25;;;;;;;21.88;60.39;99477.19;4409317;32;20124;-87
2023/06/13 07:22:47;;;;;;;2.85;1.37;;;;;;;21.87;60.39;99472.88;4382950;32;20153;-85
2023/06/13 07:25:12;;;;;;;2.67;1.52;;;;;;;21.71;60.39;99479.41;4382577;32;20110;-85
2023/06/13 07:27:37;;;;;;;1.65;1.10;;;;;;;21.68;60.38;99484.97;4409495;32;20469;-86
2023/06/13 07:30:03;;;;;;;2.90;1.23;;;;;;;21.87;60.39;99479.00;4407697;32;23401;-86
2023/06/13 07:32:28;;;;;;;3.45;1.33;;;;;;;21.85;60.38;99475.66;4395492;32;20089;-86
2023/06/13 07:34:54;;;;;;;2.47;1.12;;;;;;;21.99;60.39;99470.03;4408144;32;20097;-86
2023/06/13 07:37:19;;;;;;;2.60;1.00;;;;;;;22.03;60.41;99474.13;4409120;32;20482;-86
2023/06/13 07:39:45;;;;;;;1.90;1.25;;;;;;;22.03;60.40;99467.97;4395405;32;20098;-86
2023/06/13 07:42:11;;;;;;;5.57;1.58;;;;;;;21.93;60.39;99469.69;4382642;32;20089;-87
2023/06/13 07:44:37;;;;;;;3.95;1.10;;;;;;;22.02;60.40;99464.50;4395092;32;20467;-87
2023/06/13 07:47:02;;;;;;;2.62;1.05;;;;;;;22.17;60.41;99466.84;4395343;32;20127;-88
2023/06/13 07:49:28;;;;;;;2.45;1.23;;;;;;;22.44;60.42;99458.34;4395295;32;20439;-86
2023/06/13 07:51:54;;;;;;;2.62;1.55;;;;;;;22.67;60.43;99458.03;4407906;32;20165;-87
2023/06/13 07:54:21;;;;;;;4.15;1.55;;;;;;;22.66;60.43;99466.13;4395237;32;20255;-85
2023/06/13 07:56:47;;;;;;;6.22;1.05;;;;;;;22.54;60.43;99465.38;4407949;32;20512;-87
2023/06/13 07:59:13;;;;;;;4.07;1.10;;;;;;;22.54;60.42;99459.25;4395609;32;20090;-87
2023/06/13 08:01:38;;;;;;;5.68;2.25;;;;;;;22.56;60.43;99457.31;4382325;32;20474;-87
2023/06/13 08:04:04;;;;;;;1.92;1.08;;;;;;;22.60;60.43;99454.25;4395252;32;20125;-89
2023/06/13 08:06:30;;;;;;;5.72;1.37;;;;;;;22.57;60.43;99437.75;4394747;32;20200;-87
2023/06/13 08:08:55;;;;;;;2.78;1.40;;;;;;;22.53;60.42;99457.56;4409006;32;20500;-87
2023/06/13 08:11:21;;;;;;;3.05;1.45;;;;;;;22.65;60.43;99444.06;4408731;32;20094;-88
2023/06/13 08:13:46;;;;;;;2.97;1.70;;;;;;;22.76;60.44;99444.97;4407830;32;20146;-87
2023/06/13 08:16:14;;;;;;;6.07;1.60;;;;;;;22.91;60.44;99443.63;4370079;32;20132;-87
2023/06/13 08:18:40;;;;;;;2.50;1.27;;;;;;;22.75;60.44;99437.97;4395701;32;20124;-87
2023/06/13 08:21:05;;;;;;;6.60;1.60;;;;;;;22.83;60.44;99448.78;4408926;32;20440;-87
2023/06/13 08:23:31;;;;;;;3.40;1.30;;;;;;;22.99;60.46;99448.28;4382722;32;20110;-87
2023/06/13 08:25:56;;;;;;;2.17;1.30;;;;;;;23.02;60.44;99445.37;4409247;32;20432;-88
2023/06/13 08:28:21;;;;;;;1.90;1.15;;;;;;;23.31;60.46;99440.09;4394705;32;22418;-87
2023/06/13 08:30:49;;;;;;;4.43;2.37;;;;;;;23.35;60.47;99430.88;4395230;32;20116;-87
2023/06/13 08:33:14;;;;;;;7.03;1.65;;;;;;;23.34;60.47;99439.81;4395479;32;20102;-87
2023/06/13 08:35:40;;;;;;;2.22;1.20;;;;;;;23.53;60.48;99445.16;4407581;32;20189;-87
2023/06/13 08:38:05;;;;;;;1.77;1.10;;;;;;;23.44;60.48;99438.88;4395339;32;20110;-87
2023/06/13 08:40:31;;;;;;;2.37;1.33;;;;;;;23.54;60.48;99436.22;4408992;32;20102;-87
2023/06/13 08:42:58;;;;;;;6.22;1.67;;;;;;;23.84;60.49;99432.59;4394998;32;20121;-86
2023/06/13 08:45:24;;;;;;;2.15;1.12;;;;;;;24.03;60.50;99432.59;4383249;32;20174;-87
2023/06/13 08:47:50;;;;;;;2.22;1.27;;;;;;;23.90;60.50;99432.06;4407575;32;20193;-87
2023/06/13 08:50:18;;;;;;;6.37;1.85;;;;;;;24.12;60.51;99425.56;4394975;32;20106;-87
2023/06/13 08:52:45;;;;;;;4.03;0.93;;;;;;;24.06;60.51;99429.63;4382630;32;20114;-87
2023/06/13 08:55:20;;;;;;;2.20;1.15;;;;;;;24.03;60.50;99442.38;4395110;32;20110;-87
2023/06/13 08:57:47;;;;;;;2.45;1.30;;;;;;;23.82;60.50;99445.19;4382528;32;20120;-87
2023/06/13 09:00:15;;;;;;;2.92;1.30;;;;;;;23.80;60.50;99440.03;4382233;32;20117;-88
2023/06/13 09:02:43;;;;;;;4.12;1.50;;;;;;;23.95;60.50;99439.59;4382845;32;20128;-87
2023/06/13 09:05:13;;;;;;;4.05;1.40;;;;;;;23.97;60.50;99435.81;4395201;32;20140;-88
2023/06/13 09:07:39;;;;;;;1.98;1.17;;;;;;;24.10;60.51;99443.47;4395318;32;20112;-88
2023/06/13 09:10:05;;;;;;;5.95;1.27;;;;;;;24.09;60.51;99428.50;4382280;32;20090;-88
2023/06/13 09:12:30;;;;;;;6.15;1.58;;;;;;;24.04;60.51;99428.94;4394849;32;20102;-87
2023/06/13 09:14:55;;;;;;;4.55;1.35;;;;;;;24.49;60.53;99421.16;4390356;32;20142;-87
2023/06/13 09:17:21;;;;;;;5.15;1.77;;;;;;;24.55;60.53;99424.22;4391953;32;20498;-87
2023/06/13 09:19:47;;;;;;;3.90;1.10;;;;;;;24.48;60.52;99427.47;4394462;32;20102;-87
2023/06/13 09:22:15;;;;;;;4.07;1.48;;;;;;;24.47;60.53;99432.94;4408413;32;20097;-87
2023/06/13 09:24:40;;;;;;;2.65;1.40;;;;;;;24.38;60.53;99426.69;4394581;32;20518;-86
2023/06/13 09:27:06;;;;;;;6.07;1.50;;;;;;;23.96;60.50;99438.63;4379074;32;22646;-87
2023/06/13 09:29:34;;;;;;;3.03;1.25;;;;;;;24.15;60.52;99419.97;4374750;32;20144;-87
2023/06/13 09:32:00;;;;;;;2.05;1.20;;;;;;;23.89;60.51;99427.69;4394673;32;20117;-87
2023/06/13 09:34:28;;;;;;;4.30;1.40;;;;;;;24.26;60.52;99421.63;4394567;32;20678;-87
2023/06/13 09:36:55;;;;;;;2.53;1.08;;;;;;;24.38;60.52;99420.50;4382446;32;20160;-87
2023/06/13 09:39:20;;;;;;;1.80;1.00;;;;;;;24.79;60.54;99414.72;4394724;32;20098;-87
2023/06/13 09:41:51;;;;;;;3.70;1.75;;;;;;;24.78;60.54;99407.72;4407779;32;20098;-86
2023/06/13 09:44:16;;;;;;;1.83;1.40;;;;;;;25.09;60.56;99408.31;4394735;32;20174;-85
2023/06/13 09:46:42;;;;;;;4.68;1.35;;;;;;;25.24;60.57;99408.59;4394164;32;20446;-86
2023/06/13 09:49:08;;;;;;;1.48;1.37;;;;;;;25.18;60.57;99411.03;4406581;32;20491;-85
2023/06/13 09:51:33;;;;;;;4.85;1.45;;;;;;;24.71;60.54;99413.78;4393309;32;35815;-86
2023/06/13 09:54:02;;;;;;;2.97;1.40;;;;;;;24.71;60.54;99419.13;4407891;32;20383;-85
2023/06/13 09:56:27;;;;;;;2.95;1.50;;;;;;;24.74;60.55;99417.00;4381938;32;20106;-85
2023/06/13 09:58:53;;;;;;;2.05;1.20;;;;;;;24.83;60.55;99415.25;4407970;32;20711;-88
2023/06/13 10:01:18;;;;;;;4.25;1.30;;;;;;;25.35;60.57;99413.72;4394042;32;20168;-84
2023/06/13 10:03:44;;;;;;;3.00;1.12;;;;;;;25.57;60.58;99414.28;4406562;32;20132;-85
2023/06/13 10:06:10;;;;;;;3.10;1.65;;;;;;;25.49;60.58;99423.00;4381511;32;20117;-87
2023/06/13 10:08:36;;;;;;;3.85;1.30;;;;;;;25.53;60.59;99415.53;4394313;32;20102;-85
2023/06/13 10:11:09;;;;;;;1.95;1.08;;;;;;;25.07;60.56;99415.56;4381704;32;20133;-86
2023/06/13 10:14:07;;;;;;;1.67;1.20;;;;;;;24.89;60.55;99419.19;4371296;32;20181;-86
2023/06/13 10:16:38;;;;;;;1.60;0.93;;;;;;;24.90;60.56;99412.88;4395715;32;20089;-85
2023/06/13 10:19:05;;;;;;;1.67;1.12;;;;;;;24.93;60.56;99410.75;4395876;32;20387;-86
2023/06/13 10:21:30;;;;;;;2.20;1.35;;;;;;;25.09;60.56;99396.81;4396060;32;20105;-86
2023/06/13 10:23:56;;;;;;;4.35;1.08;;;;;;;24.85;60.55;99401.81;4383217;32;20209;-86
2023/06/13 10:26:29;;;;;;;2.83;1.27;;;;;;;24.70;60.54;99398.81;4407714;32;28736;-86
2023/06/13 10:29:32;;;;;;;2.75;1.20;;;;;;;24.96;60.55;99394.47;4395972;32;20469;-86
2023/06/13 10:32:00;;;;;;;5.78;1.73;;;;;;;25.04;60.56;99397.22;4409619;32;20120;-85
2023/06/13 10:35:10;;;;;;;4.32;1.60;;;;;;;24.86;60.56;99406.16;4409732;32;20157;-86
2023/06/13 10:37:53;;;;;;;9.27;1.87;;;;;;;25.04;60.56;99399.91;4396047;32;20117;-85
2023/06/13 10:40:52;;;;;;;3.85;1.40;;;;;;;24.95;60.55;99395.44;4383486;32;20124;-86
2023/06/13 10:43:27;;;;;;;2.22;1.33;;;;;;;24.74;60.54;99400.19;4395405;32;20474;-85
2023/06/13 10:45:52;;;;;;;1.95;1.35;;;;;;;24.58;60.54;99395.47;4408672;32;20140;-85
2023/06/13 10:48:36;;;;;;;2.67;1.42;;;;;;;24.80;60.55;99391.59;4382696;32;20142;-86
2023/06/13 10:51:02;;;;;;;2.47;1.62;;;;;;;25.16;60.57;99386.38;4408592;32;20152;-85
2023/06/13 10:53:27;;;;;;;2.72;1.30;;;;;;;25.49;60.59;99390.19;4382198;32;20106;-85
2023/06/13 10:56:00;;;;;;;2.15;1.30;;;;;;;25.64;60.59;99386.00;4394803;32;20114;-86
2023/06/13 10:58:26;;;;;;;2.33;1.27;;;;;;;25.36;60.58;99382.59;4395016;32;20474;-84
2023/06/13 11:00:51;;;;;;;3.03;1.37;;;;;;;25.05;60.57;99377.59;4406966;32;20124;-86
2023/06/13 11:03:17;;;;;;;2.90;1.60;;;;;;;25.31;60.58;99379.53;4394331;32;20272;-85
2023/06/13 11:05:45;;;;;;;5.80;1.52;;;;;;;25.38;60.58;99384.13;4382463;32;20113;-85
2023/06/13 11:08:14;;;;;;;4.62;1.27;;;;;;;25.25;60.57;99375.66;4408301;32;20086;-85
2023/06/13 11:10:44;;;;;;;1.95;1.20;;;;;;;25.78;60.60;99379.28;4408139;32;20086;-84
2023/06/13 11:13:26;;;;;;;5.62;2.40;;;;;;;25.89;60.60;99374.56;4369754;32;20107;-86
2023/06/13 11:15:56;;;;;;;7.10;2.20;;;;;;;26.18;60.62;99376.91;4394519;32;20102;-86
2023/06/13 11:18:21;;;;;;;3.78;1.90;;;;;;;25.96;60.60;99375.59;4394902;32;20171;-86
2023/06/13 11:20:49;;;;;;;3.78;1.65;;;;;;;26.26;60.62;99368.97;4408048;32;20106;-85
2023/06/13 11:23:16;;;;;;;2.10;1.33;;;;;;;26.48;60.64;99370.25;4393868;32;20098;-85
2023/06/13 11:25:42;;;;;;;3.47;1.73;;;;;;;26.57;60.64;99377.31;4382032;32;20097;-86
2023/06/13 11:28:08;;;;;;;3.03;1.20;;;;;;;26.37;60.62;99365.22;4381821;32;20486;-85
2023/06/13 11:30:33;;;;;;;3.00;1.52;;;;;;;26.49;60.64;99363.09;4394564;32;20098;-86
2023/06/13 11:32:58;;;;;;;6.03;1.60;;;;;;;26.50;60.64;99357.62;4407088;32;20098;-86
2023/06/13 11:35:24;;;;;;;3.40;1.83;;;;;;;26.76;60.65;99356.72;4380975;32;35919;-86